sensor_id;sensor_type;location;lat;lon;timestamp;pressure;altitude;pressure_sealevel;temperature;humidity
36254;BME280;22291;52.250;21.228;2023-03-23T00:01:10;99626.60;;;8.72;79.94
36254;BME280;22291;52.250;21.228;2023-03-23T00:03:43;99623.34;;;8.73;79.91
36254;BME280;22291;52.250;21.228;2023-03-23T00:06:09;99624.12;;;8.73;79.94
36254;BME280;22291;52.250;21.228;2023-03-23T00:08:38;99617.64;;;8.74;79.98
36254;BME280;22291;52.250;21.228;2023-03-23T00:11:09;99613.91;;;8.73;80.03
36254;BME280;22291;52.250;21.228;2023-03-23T00:13:42;99617.39;;;8.73;80.01
36254;BME280;22291;52.250;21.228;2023-03-23T00:16:10;99617.95;;;8.73;80.01
36254;BME280;22291;52.250;21.228;2023-03-23T00:18:39;99619.08;;;8.72;80.22
36254;BME280;22291;52.250;21.228;2023-03-23T00:21:05;99617.39;;;8.73;80.30
36254;BME280;22291;52.250;21.228;2023-03-23T00:23:33;99615.81;;;8.72;80.20
36254;BME280;22291;52.250;21.228;2023-03-23T00:25:59;99615.81;;;8.72;80.16
36254;BME280;22291;52.250;21.228;2023-03-23T00:28:26;99614.78;;;8.71;80.03
36254;BME280;22291;52.250;21.228;2023-03-23T00:31:03;99613.98;;;8.70;80.23
36254;BME280;22291;52.250;21.228;2023-03-23T00:33:32;99606.44;;;8.70;80.19
36254;BME280;22291;52.250;21.228;2023-03-23T00:36:05;99604.86;;;8.69;80.25
36254;BME280;22291;52.250;21.228;2023-03-23T00:38:35;99610.56;;;8.67;80.34
36254;BME280;22291;52.250;21.228;2023-03-23T00:41:03;99602.78;;;8.66;80.48
36254;BME280;22291;52.250;21.228;2023-03-23T00:43:32;99603.88;;;8.65;80.49
36254;BME280;22291;52.250;21.228;2023-03-23T00:46:02;99602.63;;;8.62;80.46
36254;BME280;22291;52.250;21.228;2023-03-23T00:48:31;99596.75;;;8.60;80.72
36254;BME280;22291;52.250;21.228;2023-03-23T00:50:58;99595.72;;;8.58;80.71
36254;BME280;22291;52.250;21.228;2023-03-23T00:53:26;99595.77;;;8.56;80.83
36254;BME280;22291;52.250;21.228;2023-03-23T00:55:53;99591.50;;;8.55;80.87
36254;BME280;22291;52.250;21.228;2023-03-23T00:58:19;99592.34;;;8.53;80.97
36254;BME280;22291;52.250;21.228;2023-03-23T01:00:45;99589.98;;;8.51;81.14
36254;BME280;22291;52.250;21.228;2023-03-23T01:03:11;99586.17;;;8.52;80.91
36254;BME280;22291;52.250;21.228;2023-03-23T01:05:39;99590.47;;;8.53;81.20
36254;BME280;22291;52.250;21.228;2023-03-23T01:08:06;99585.61;;;8.53;81.50
36254;BME280;22291;52.250;21.228;2023-03-23T01:10:33;99583.95;;;8.54;81.46
36254;BME280;22291;52.250;21.228;2023-03-23T01:13:00;99578.56;;;8.54;81.36
36254;BME280;22291;52.250;21.228;2023-03-23T01:15:27;99572.08;;;8.55;81.36
36254;BME280;22291;52.250;21.228;2023-03-23T01:17:54;99573.42;;;8.55;81.56
36254;BME280;22291;52.250;21.228;2023-03-23T01:20:22;99570.42;;;8.57;81.63
36254;BME280;22291;52.250;21.228;2023-03-23T01:22:49;99564.72;;;8.58;81.75
36254;BME280;22291;52.250;21.228;2023-03-23T01:25:16;99568.76;;;8.58;81.84
36254;BME280;22291;52.250;21.228;2023-03-23T01:27:43;99565.97;;;8.61;81.71
36254;BME280;22291;52.250;21.228;2023-03-23T01:30:11;99561.06;;;8.63;81.91
36254;BME280;22291;52.250;21.228;2023-03-23T01:32:39;99564.27;;;8.65;81.67
36254;BME280;22291;52.250;21.228;2023-03-23T01:35:06;99565.83;;;8.66;81.69
36254;BME280;22291;52.250;21.228;2023-03-23T01:37:33;99565.30;;;8.67;81.66
36254;BME280;22291;52.250;21.228;2023-03-23T01:39:59;99567.12;;;8.69;81.68
36254;BME280;22291;52.250;21.228;2023-03-23T01:42:33;99566.24;;;8.71;81.69
36254;BME280;22291;52.250;21.228;2023-03-23T01:51:10;99572.89;;;8.73;81.65
36254;BME280;22291;52.250;21.228;2023-03-23T01:53:45;99577.45;;;8.75;81.87
36254;BME280;22291;52.250;21.228;2023-03-23T01:56:14;99562.61;;;8.75;81.54
36254;BME280;22291;52.250;21.228;2023-03-23T01:58:45;99576.32;;;8.76;81.62
36254;BME280;22291;52.250;21.228;2023-03-23T02:01:13;99572.59;;;8.75;81.61
36254;BME280;22291;52.250;21.228;2023-03-23T02:03:43;99568.55;;;8.75;81.57
36254;BME280;22291;52.250;21.228;2023-03-23T02:06:11;99566.41;;;8.74;81.34
36254;BME280;22291;52.250;21.228;2023-03-23T02:08:38;99563.80;;;8.72;81.38
36254;BME280;22291;52.250;21.228;2023-03-23T02:11:18;99562.52;;;8.69;81.50
36254;BME280;22291;52.250;21.228;2023-03-23T02:13:46;99562.52;;;8.69;81.50
36254;BME280;22291;52.250;21.228;2023-03-23T02:30:31;99541.70;;;8.52;81.65
36254;BME280;22291;52.250;21.228;2023-03-23T02:39:09;99530.11;;;8.43;82.62
36254;BME280;22291;52.250;21.228;2023-03-23T02:41:55;99531.27;;;8.39;82.24
36254;BME280;22291;52.250;21.228;2023-03-23T02:44:24;99525.37;;;8.37;82.52
36254;BME280;22291;52.250;21.228;2023-03-23T02:46:56;99526.23;;;8.35;82.34
36254;BME280;22291;52.250;21.228;2023-03-23T02:49:27;99532.75;;;8.34;82.70
36254;BME280;22291;52.250;21.228;2023-03-23T02:51:56;99527.67;;;8.33;82.71
36254;BME280;22291;52.250;21.228;2023-03-23T02:54:26;99536.55;;;8.33;82.77
36254;BME280;22291;52.250;21.228;2023-03-23T02:56:54;99537.64;;;8.32;82.87
36254;BME280;22291;52.250;21.228;2023-03-23T02:59:22;99523.94;;;8.31;82.84
36254;BME280;22291;52.250;21.228;2023-03-23T03:01:52;99532.55;;;8.31;82.92
36254;BME280;22291;52.250;21.228;2023-03-23T03:04:22;99533.38;;;8.31;83.08
36254;BME280;22291;52.250;21.228;2023-03-23T03:10:04;99517.52;;;8.30;83.54
36254;BME280;22291;52.250;21.228;2023-03-23T03:15:49;99526.86;;;8.32;83.50
36254;BME280;22291;52.250;21.228;2023-03-23T03:18:43;99526.63;;;8.31;83.32
36254;BME280;22291;52.250;21.228;2023-03-23T03:21:13;99535.19;;;8.33;83.58
36254;BME280;22291;52.250;21.228;2023-03-23T03:23:43;99529.55;;;8.32;83.53
36254;BME280;22291;52.250;21.228;2023-03-23T03:26:12;99532.02;;;8.31;83.57
36254;BME280;22291;52.250;21.228;2023-03-23T03:28:41;99523.13;;;8.31;83.46
36254;BME280;22291;52.250;21.228;2023-03-23T03:31:08;99526.38;;;8.30;83.43
36254;BME280;22291;52.250;21.228;2023-03-23T03:33:35;99526.95;;;8.30;83.48
36254;BME280;22291;52.250;21.228;2023-03-23T03:36:03;99528.29;;;8.30;83.47
36254;BME280;22291;52.250;21.228;2023-03-23T03:38:45;99529.39;;;8.29;83.51
36254;BME280;22291;52.250;21.228;2023-03-23T03:41:14;99536.99;;;8.27;83.85
36254;BME280;22291;52.250;21.228;2023-03-23T03:43:41;99530.56;;;8.25;83.61
36254;BME280;22291;52.250;21.228;2023-03-23T03:46:08;99539.44;;;8.26;83.69
36254;BME280;22291;52.250;21.228;2023-03-23T03:48:34;99537.61;;;8.23;83.48
36254;BME280;22291;52.250;21.228;2023-03-23T03:51:01;99547.66;;;8.20;83.75
36254;BME280;22291;52.250;21.228;2023-03-23T03:53:28;99550.44;;;8.18;83.93
36254;BME280;22291;52.250;21.228;2023-03-23T03:55:56;99549.95;;;8.16;83.92
36254;BME280;22291;52.250;21.228;2023-03-23T03:58:25;99543.58;;;8.12;83.81
36254;BME280;22291;52.250;21.228;2023-03-23T04:01:00;99538.81;;;8.09;83.93
36254;BME280;22291;52.250;21.228;2023-03-23T04:03:27;99539.98;;;8.05;83.74
36254;BME280;22291;52.250;21.228;2023-03-23T04:05:54;99533.95;;;7.99;83.96
36254;BME280;22291;52.250;21.228;2023-03-23T04:08:24;99529.73;;;7.96;84.11
36254;BME280;22291;52.250;21.228;2023-03-23T04:10:52;99525.52;;;7.92;83.92
36254;BME280;22291;52.250;21.228;2023-03-23T04:13:20;99516.77;;;7.86;84.17
36254;BME280;22291;52.250;21.228;2023-03-23T04:15:47;99518.98;;;7.84;84.29
36254;BME280;22291;52.250;21.228;2023-03-23T04:18:14;99517.23;;;7.80;84.33
36254;BME280;22291;52.250;21.228;2023-03-23T04:20:44;99516.25;;;7.76;84.67
36254;BME280;22291;52.250;21.228;2023-03-23T04:23:20;99516.86;;;7.73;84.46
36254;BME280;22291;52.250;21.228;2023-03-23T04:25:49;99512.91;;;7.70;84.87
36254;BME280;22291;52.250;21.228;2023-03-23T04:28:17;99516.98;;;7.67;85.03
36254;BME280;22291;52.250;21.228;2023-03-23T04:30:46;99519.76;;;7.65;85.20
36254;BME280;22291;52.250;21.228;2023-03-23T04:33:14;99512.04;;;7.61;85.07
36254;BME280;22291;52.250;21.228;2023-03-23T04:35:42;99507.52;;;7.59;85.38
36254;BME280;22291;52.250;21.228;2023-03-23T04:38:11;99523.45;;;7.58;85.47
36254;BME280;22291;52.250;21.228;2023-03-23T04:40:40;99523.45;;;7.58;85.50
36254;BME280;22291;52.250;21.228;2023-03-23T04:43:08;99512.81;;;7.53;85.58
36254;BME280;22291;52.250;21.228;2023-03-23T04:45:35;99517.68;;;7.51;85.69
36254;BME280;22291;52.250;21.228;2023-03-23T04:48:04;99519.66;;;7.47;85.51
36254;BME280;22291;52.250;21.228;2023-03-23T04:50:32;99516.72;;;7.46;85.79
36254;BME280;22291;52.250;21.228;2023-03-23T04:53:01;99514.89;;;7.44;85.88
36254;BME280;22291;52.250;21.228;2023-03-23T04:55:34;99507.68;;;7.42;86.10
36254;BME280;22291;52.250;21.228;2023-03-23T04:58:06;99520.31;;;7.42;85.94
36254;BME280;22291;52.250;21.228;2023-03-23T05:00:34;99515.80;;;7.40;86.34
36254;BME280;22291;52.250;21.228;2023-03-23T05:03:01;99515.02;;;7.39;86.42
36254;BME280;22291;52.250;21.228;2023-03-23T05:05:28;99511.84;;;7.37;86.52
36254;BME280;22291;52.250;21.228;2023-03-23T05:07:58;99511.84;;;7.37;86.67
36254;BME280;22291;52.250;21.228;2023-03-23T05:10:24;99499.73;;;7.37;86.74
36254;BME280;22291;52.250;21.228;2023-03-23T05:12:53;99499.73;;;7.37;86.91
36254;BME280;22291;52.250;21.228;2023-03-23T05:15:20;99501.86;;;7.38;86.82
36254;BME280;22291;52.250;21.228;2023-03-23T05:17:47;99505.34;;;7.38;87.24
36254;BME280;22291;52.250;21.228;2023-03-23T05:20:16;99505.30;;;7.41;87.08
36254;BME280;22291;52.250;21.228;2023-03-23T05:22:46;99517.33;;;7.43;87.46
36254;BME280;22291;52.250;21.228;2023-03-23T05:25:17;99514.02;;;7.46;87.85
36254;BME280;22291;52.250;21.228;2023-03-23T05:27:48;99504.30;;;7.48;87.78
36254;BME280;22291;52.250;21.228;2023-03-23T05:30:16;99507.66;;;7.54;87.78
36254;BME280;22291;52.250;21.228;2023-03-23T05:32:43;99508.09;;;7.58;87.72
36254;BME280;22291;52.250;21.228;2023-03-23T05:35:11;99511.43;;;7.64;88.13
36254;BME280;22291;52.250;21.228;2023-03-23T05:37:38;99510.82;;;7.67;87.82
36254;BME280;22291;52.250;21.228;2023-03-23T05:40:06;99508.78;;;7.73;87.78
36254;BME280;22291;52.250;21.228;2023-03-23T05:42:34;99505.66;;;7.79;87.83
36254;BME280;22291;52.250;21.228;2023-03-23T05:45:03;99498.79;;;7.84;87.80
36254;BME280;22291;52.250;21.228;2023-03-23T05:47:30;99497.00;;;7.91;87.92
36254;BME280;22291;52.250;21.228;2023-03-23T05:49:58;99504.94;;;7.96;87.71
36254;BME280;22291;52.250;21.228;2023-03-23T05:52:24;99507.19;;;8.03;87.85
36254;BME280;22291;52.250;21.228;2023-03-23T05:54:52;99511.26;;;8.12;87.73
36254;BME280;22291;52.250;21.228;2023-03-23T05:57:19;99512.16;;;8.18;87.56
36254;BME280;22291;52.250;21.228;2023-03-23T05:59:49;99511.48;;;8.24;87.49
36254;BME280;22291;52.250;21.228;2023-03-23T06:02:15;99515.55;;;8.33;87.48
36254;BME280;22291;52.250;21.228;2023-03-23T06:04:42;99512.70;;;8.38;87.29
36254;BME280;22291;52.250;21.228;2023-03-23T06:07:09;99517.33;;;8.46;87.13
36254;BME280;22291;52.250;21.228;2023-03-23T06:09:41;99513.95;;;8.52;86.89
36254;BME280;22291;52.250;21.228;2023-03-23T06:12:09;99517.23;;;8.60;86.83
36254;BME280;22291;52.250;21.228;2023-03-23T06:14:37;99527.55;;;8.67;86.59
36254;BME280;22291;52.250;21.228;2023-03-23T06:17:04;99522.01;;;8.72;86.39
36254;BME280;22291;52.250;21.228;2023-03-23T06:19:32;99523.43;;;8.78;86.20
36254;BME280;22291;52.250;21.228;2023-03-23T06:22:00;99532.09;;;8.86;86.05
36254;BME280;22291;52.250;21.228;2023-03-23T06:24:27;99525.98;;;8.92;85.82
36254;BME280;22291;52.250;21.228;2023-03-23T06:26:54;99521.93;;;9.01;85.70
36254;BME280;22291;52.250;21.228;2023-03-23T06:29:20;99528.14;;;9.10;85.59
36254;BME280;22291;52.250;21.228;2023-03-23T06:31:50;99521.48;;;9.16;85.38
36254;BME280;22291;52.250;21.228;2023-03-23T06:34:18;99523.05;;;9.26;85.14
36254;BME280;22291;52.250;21.228;2023-03-23T06:36:45;99518.45;;;9.35;84.91
36254;BME280;22291;52.250;21.228;2023-03-23T06:39:11;99527.63;;;9.43;84.58
36254;BME280;22291;52.250;21.228;2023-03-23T06:41:38;99527.72;;;9.49;84.48
36254;BME280;22291;52.250;21.228;2023-03-23T06:44:05;99529.83;;;9.58;84.23
36254;BME280;22291;52.250;21.228;2023-03-23T06:46:33;99533.81;;;9.61;83.79
36254;BME280;22291;52.250;21.228;2023-03-23T06:48:59;99548.39;;;9.68;83.96
36254;BME280;22291;52.250;21.228;2023-03-23T06:51:25;99547.88;;;9.84;84.35
36254;BME280;22291;52.250;21.228;2023-03-23T06:53:52;99536.48;;;10.02;84.31
36254;BME280;22291;52.250;21.228;2023-03-23T06:56:18;99546.14;;;10.26;84.43
36254;BME280;22291;52.250;21.228;2023-03-23T06:58:44;99541.30;;;10.50;83.22
36254;BME280;22291;52.250;21.228;2023-03-23T07:01:13;99534.89;;;10.69;82.44
36254;BME280;22291;52.250;21.228;2023-03-23T07:03:41;99532.31;;;10.88;81.85
36254;BME280;22291;52.250;21.228;2023-03-23T07:06:09;99537.13;;;11.03;82.23
36254;BME280;22291;52.250;21.228;2023-03-23T07:08:36;99527.63;;;11.18;81.53
36254;BME280;22291;52.250;21.228;2023-03-23T07:11:03;99532.31;;;11.30;80.58
36254;BME280;22291;52.250;21.228;2023-03-23T07:13:31;99537.77;;;11.42;79.77
36254;BME280;22291;52.250;21.228;2023-03-23T07:15:58;99531.94;;;11.52;79.92
36254;BME280;22291;52.250;21.228;2023-03-23T07:18:26;99530.54;;;11.80;79.60
36254;BME280;22291;52.250;21.228;2023-03-23T07:20:53;99535.70;;;12.00;79.10
36254;BME280;22291;52.250;21.228;2023-03-23T07:23:20;99528.03;;;12.20;77.57
36254;BME280;22291;52.250;21.228;2023-03-23T07:25:46;99531.88;;;12.44;76.83
36254;BME280;22291;52.250;21.228;2023-03-23T07:28:15;99529.16;;;12.56;76.05
36254;BME280;22291;52.250;21.228;2023-03-23T07:30:42;99533.10;;;12.71;74.73
36254;BME280;22291;52.250;21.228;2023-03-23T07:33:09;99537.14;;;12.96;74.47
36254;BME280;22291;52.250;21.228;2023-03-23T07:35:36;99546.64;;;13.30;75.59
36254;BME280;22291;52.250;21.228;2023-03-23T07:38:05;99547.97;;;13.71;73.96
36254;BME280;22291;52.250;21.228;2023-03-23T07:40:32;99538.92;;;14.20;74.32
36254;BME280;22291;52.250;21.228;2023-03-23T07:43:00;99540.03;;;14.51;72.28
36254;BME280;22291;52.250;21.228;2023-03-23T07:45:28;99545.14;;;14.79;71.58
36254;BME280;22291;52.250;21.228;2023-03-23T07:47:56;99543.36;;;14.86;70.14
36254;BME280;22291;52.250;21.228;2023-03-23T07:50:23;99546.61;;;14.92;69.48
36254;BME280;22291;52.250;21.228;2023-03-23T07:52:53;99555.86;;;15.17;67.80
36254;BME280;22291;52.250;21.228;2023-03-23T07:55:20;99548.12;;;15.28;67.71
36254;BME280;22291;52.250;21.228;2023-03-23T07:57:48;99557.80;;;15.36;65.96
36254;BME280;22291;52.250;21.228;2023-03-23T08:00:17;99548.39;;;15.62;67.28
36254;BME280;22291;52.250;21.228;2023-03-23T08:02:46;99548.20;;;16.04;65.69
36254;BME280;22291;52.250;21.228;2023-03-23T08:05:15;99546.41;;;16.65;63.96
36254;BME280;22291;52.250;21.228;2023-03-23T08:07:42;99540.11;;;16.61;62.95
36254;BME280;22291;52.250;21.228;2023-03-23T08:10:12;99534.56;;;16.54;63.94
36254;BME280;22291;52.250;21.228;2023-03-23T08:12:41;99536.00;;;16.84;64.31
36254;BME280;22291;52.250;21.228;2023-03-23T08:15:11;99533.31;;;16.88;62.00
36254;BME280;22291;52.250;21.228;2023-03-23T08:17:41;99535.61;;;16.72;61.42
36254;BME280;22291;52.250;21.228;2023-03-23T08:20:10;99525.47;;;16.59;61.99
36254;BME280;22291;52.250;21.228;2023-03-23T08:22:39;99521.50;;;16.53;61.62
36254;BME280;22291;52.250;21.228;2023-03-23T08:25:09;99521.73;;;16.58;59.86
36254;BME280;22291;52.250;21.228;2023-03-23T08:27:38;99514.50;;;16.56;60.66
36254;BME280;22291;52.250;21.228;2023-03-23T08:30:15;99510.94;;;16.38;59.68
36254;BME280;22291;52.250;21.228;2023-03-23T08:32:42;99511.15;;;16.26;59.51
36254;BME280;22291;52.250;21.228;2023-03-23T08:35:10;99502.53;;;16.51;62.04
36254;BME280;22291;52.250;21.228;2023-03-23T08:37:38;99505.47;;;17.09;56.06
36254;BME280;22291;52.250;21.228;2023-03-23T08:40:06;99501.29;;;17.35;58.77
36254;BME280;22291;52.250;21.228;2023-03-23T08:42:34;99492.89;;;17.76;59.29
36254;BME280;22291;52.250;21.228;2023-03-23T08:45:02;99494.27;;;18.48;59.17
36254;BME280;22291;52.250;21.228;2023-03-23T08:47:29;99489.72;;;19.12;58.11
36254;BME280;22291;52.250;21.228;2023-03-23T08:49:56;99490.25;;;19.72;56.08
36254;BME280;22291;52.250;21.228;2023-03-23T08:52:23;99500.66;;;19.83;51.12
36254;BME280;22291;52.250;21.228;2023-03-23T08:54:49;99485.53;;;19.62;53.63
36254;BME280;22291;52.250;21.228;2023-03-23T08:57:15;99490.20;;;19.54;52.44
36254;BME280;22291;52.250;21.228;2023-03-23T08:59:41;99485.63;;;19.23;49.47
36254;BME280;22291;52.250;21.228;2023-03-23T09:02:10;99485.67;;;18.84;49.36
36254;BME280;22291;52.250;21.228;2023-03-23T09:04:40;99505.25;;;18.55;50.88
36254;BME280;22291;52.250;21.228;2023-03-23T09:07:12;99508.17;;;18.25;49.95
36254;BME280;22291;52.250;21.228;2023-03-23T09:09:40;99508.53;;;17.96;50.68
36254;BME280;22291;52.250;21.228;2023-03-23T09:12:09;99503.61;;;17.71;51.05
36254;BME280;22291;52.250;21.228;2023-03-23T09:14:37;99514.47;;;17.47;51.50
36254;BME280;22291;52.250;21.228;2023-03-23T09:17:05;99503.70;;;17.24;52.25
36254;BME280;22291;52.250;21.228;2023-03-23T09:19:33;99501.70;;;17.04;52.03
36254;BME280;22291;52.250;21.228;2023-03-23T09:22:01;99501.61;;;16.83;52.60
36254;BME280;22291;52.250;21.228;2023-03-23T09:24:28;99498.16;;;16.73;54.12
36254;BME280;22291;52.250;21.228;2023-03-23T09:26:54;99502.53;;;16.64;54.15
36254;BME280;22291;52.250;21.228;2023-03-23T09:29:21;99499.07;;;16.54;53.37
36254;BME280;22291;52.250;21.228;2023-03-23T09:31:47;99505.89;;;16.40;53.34
36254;BME280;22291;52.250;21.228;2023-03-23T09:34:13;99502.38;;;16.27;53.38
36254;BME280;22291;52.250;21.228;2023-03-23T09:36:43;99498.18;;;16.19;52.72
36254;BME280;22291;52.250;21.228;2023-03-23T09:39:10;99496.27;;;16.10;53.67
36254;BME280;22291;52.250;21.228;2023-03-23T09:47:45;99487.99;;;16.16;55.14
36254;BME280;22291;52.250;21.228;2023-03-23T09:50:30;99482.37;;;16.19;54.93
36254;BME280;22291;52.250;21.228;2023-03-23T09:53:02;99478.23;;;16.29;54.76
36254;BME280;22291;52.250;21.228;2023-03-23T09:55:30;99472.00;;;16.28;52.41
36254;BME280;22291;52.250;21.228;2023-03-23T09:58:17;99471.36;;;16.25;53.86
36254;BME280;22291;52.250;21.228;2023-03-23T10:03:41;99457.86;;;16.36;53.84
36254;BME280;22291;52.250;21.228;2023-03-23T10:06:17;99460.09;;;16.40;51.69
36254;BME280;22291;52.250;21.228;2023-03-23T10:08:47;99452.77;;;16.48;53.01
36254;BME280;22291;52.250;21.228;2023-03-23T10:17:23;99468.31;;;16.87;51.76
36254;BME280;22291;52.250;21.228;2023-03-23T10:20:31;99457.58;;;17.02;50.94
36254;BME280;22291;52.250;21.228;2023-03-23T10:23:39;99458.67;;;17.31;50.60
36254;BME280;22291;52.250;21.228;2023-03-23T10:26:33;99450.89;;;17.95;48.86
36254;BME280;22291;52.250;21.228;2023-03-23T10:29:47;99434.75;;;19.33;50.20
36254;BME280;22291;52.250;21.228;2023-03-23T10:32:13;99449.82;;;20.44;46.98
36254;BME280;22291;52.250;21.228;2023-03-23T10:34:53;99446.30;;;21.02;45.33
36254;BME280;22291;52.250;21.228;2023-03-23T10:37:28;99438.47;;;21.68;43.32
36254;BME280;22291;52.250;21.228;2023-03-23T10:40:05;99427.80;;;21.96;42.55
36254;BME280;22291;52.250;21.228;2023-03-23T10:42:37;99434.95;;;21.90;39.81
36254;BME280;22291;52.250;21.228;2023-03-23T10:45:17;99437.13;;;21.64;41.74
36254;BME280;22291;52.250;21.228;2023-03-23T10:48:07;99429.81;;;21.36;39.97
36254;BME280;22291;52.250;21.228;2023-03-23T10:50:51;99422.47;;;21.18;40.57
36254;BME280;22291;52.250;21.228;2023-03-23T10:53:32;99448.23;;;21.42;38.58
36254;BME280;22291;52.250;21.228;2023-03-23T10:55:58;99429.41;;;21.37;40.10
36254;BME280;22291;52.250;21.228;2023-03-23T10:58:28;99425.34;;;21.26;41.46
36254;BME280;22291;52.250;21.228;2023-03-23T11:00:56;99427.02;;;21.13;41.11
36254;BME280;22291;52.250;21.228;2023-03-23T11:03:48;99424.70;;;21.01;40.12
36254;BME280;22291;52.250;21.228;2023-03-23T11:06:23;99432.77;;;21.00;39.20
36254;BME280;22291;52.250;21.228;2023-03-23T11:09:03;99435.32;;;20.99;40.98
36254;BME280;22291;52.250;21.228;2023-03-23T11:11:36;99425.91;;;21.00;40.28
36254;BME280;22291;52.250;21.228;2023-03-23T11:14:24;99429.92;;;20.81;39.39
36254;BME280;22291;52.250;21.228;2023-03-23T11:16:55;99415.83;;;20.68;40.87
36254;BME280;22291;52.250;21.228;2023-03-23T11:19:29;99408.97;;;20.61;40.86
36254;BME280;22291;52.250;21.228;2023-03-23T11:24:36;99401.38;;;20.42;41.15
36254;BME280;22291;52.250;21.228;2023-03-23T11:27:06;99410.22;;;20.42;39.93
36254;BME280;22291;52.250;21.228;2023-03-23T11:29:34;99411.98;;;20.40;40.70
36254;BME280;22291;52.250;21.228;2023-03-23T11:32:09;99405.69;;;20.47;40.44
36254;BME280;22291;52.250;21.228;2023-03-23T11:34:43;99405.86;;;20.62;39.94
36254;BME280;22291;52.250;21.228;2023-03-23T11:37:34;99396.95;;;20.81;40.97
36254;BME280;22291;52.250;21.228;2023-03-23T11:42:55;99382.31;;;21.80;39.28
36254;BME280;22291;52.250;21.228;2023-03-23T11:45:39;99371.88;;;22.22;38.96
36254;BME280;22291;52.250;21.228;2023-03-23T11:51:04;99377.81;;;23.01;35.87
36254;BME280;22291;52.250;21.228;2023-03-23T11:53:39;99362.39;;;23.03;38.07
36254;BME280;22291;52.250;21.228;2023-03-23T11:56:24;99342.91;;;23.65;37.19
36254;BME280;22291;52.250;21.228;2023-03-23T11:58:54;99355.28;;;24.44;37.76
36254;BME280;22291;52.250;21.228;2023-03-23T12:16:00;99331.34;;;25.10;33.91
36254;BME280;22291;52.250;21.228;2023-03-23T12:22:01;99322.52;;;25.24;32.51
36254;BME280;22291;52.250;21.228;2023-03-23T12:28:00;99320.18;;;25.14;33.60
36254;BME280;22291;52.250;21.228;2023-03-23T12:33:33;99326.67;;;23.59;31.74
36254;BME280;22291;52.250;21.228;2023-03-23T12:36:20;99317.76;;;22.85;34.09
36254;BME280;22291;52.250;21.228;2023-03-23T12:42:14;99301.97;;;22.31;36.03
36254;BME280;22291;52.250;21.228;2023-03-23T12:44:50;99299.92;;;22.66;34.28
36254;BME280;22291;52.250;21.228;2023-03-23T12:47:37;99297.69;;;22.42;34.50
36254;BME280;22291;52.250;21.228;2023-03-23T12:56:16;99314.23;;;21.88;35.98
36254;BME280;22291;52.250;21.228;2023-03-23T12:58:51;99316.37;;;21.51;36.00
36254;BME280;22291;52.250;21.228;2023-03-23T13:01:22;99309.59;;;21.10;36.18
36254;BME280;22291;52.250;21.228;2023-03-23T13:04:11;99310.38;;;20.81;36.79
36254;BME280;22291;52.250;21.228;2023-03-23T13:06:48;99297.17;;;20.50;36.69
36254;BME280;22291;52.250;21.228;2023-03-23T13:12:09;99301.68;;;20.05;37.79
36254;BME280;22291;52.250;21.228;2023-03-23T13:14:56;99291.15;;;19.82;38.60
36254;BME280;22291;52.250;21.228;2023-03-23T13:17:46;99287.43;;;19.69;38.65
36254;BME280;22291;52.250;21.228;2023-03-23T13:20:33;99286.88;;;19.52;38.74
36254;BME280;22291;52.250;21.228;2023-03-23T13:23:20;99292.18;;;19.36;39.59
36254;BME280;22291;52.250;21.228;2023-03-23T13:26:00;99308.05;;;19.22;39.69
36254;BME280;22291;52.250;21.228;2023-03-23T13:28:32;99296.89;;;19.11;39.94
36254;BME280;22291;52.250;21.228;2023-03-23T13:31:12;99306.84;;;18.98;39.78
36254;BME280;22291;52.250;21.228;2023-03-23T13:33:53;99297.45;;;18.89;40.04
36254;BME280;22291;52.250;21.228;2023-03-23T13:36:26;99301.70;;;18.79;40.59
36254;BME280;22291;52.250;21.228;2023-03-23T13:38:52;99303.62;;;18.67;40.87
36254;BME280;22291;52.250;21.228;2023-03-23T13:41:20;99298.34;;;18.61;41.45
36254;BME280;22291;52.250;21.228;2023-03-23T13:43:48;99295.59;;;18.54;41.62
36254;BME280;22291;52.250;21.228;2023-03-23T13:54:41;99289.64;;;18.31;42.23
36254;BME280;22291;52.250;21.228;2023-03-23T13:57:36;99289.42;;;18.26;42.36
36254;BME280;22291;52.250;21.228;2023-03-23T14:03:02;99296.64;;;18.21;42.49
36254;BME280;22291;52.250;21.228;2023-03-23T14:06:00;99280.39;;;18.18;43.05
36254;BME280;22291;52.250;21.228;2023-03-23T14:11:14;99277.66;;;18.18;43.00
36254;BME280;22291;52.250;21.228;2023-03-23T14:16:40;99293.89;;;18.17;42.41
36254;BME280;22291;52.250;21.228;2023-03-23T14:19:25;99291.55;;;18.19;42.55
36254;BME280;22291;52.250;21.228;2023-03-23T14:21:57;99309.17;;;18.22;42.26
36254;BME280;22291;52.250;21.228;2023-03-23T14:24:26;99306.02;;;18.23;42.52
36254;BME280;22291;52.250;21.228;2023-03-23T14:27:07;99299.39;;;18.24;42.41
36254;BME280;22291;52.250;21.228;2023-03-23T14:29:37;99299.59;;;18.22;42.13
36254;BME280;22291;52.250;21.228;2023-03-23T14:32:15;99317.76;;;18.20;42.96
36254;BME280;22291;52.250;21.228;2023-03-23T14:34:39;99303.84;;;18.16;42.78
36254;BME280;22291;52.250;21.228;2023-03-23T14:37:15;99322.19;;;18.11;42.98
36254;BME280;22291;52.250;21.228;2023-03-23T14:39:39;99324.52;;;18.06;43.54
36254;BME280;22291;52.250;21.228;2023-03-23T14:42:11;99335.84;;;18.04;43.92
36254;BME280;22291;52.250;21.228;2023-03-23T14:44:45;99330.55;;;17.98;43.83
36254;BME280;22291;52.250;21.228;2023-03-23T14:49:59;99332.14;;;17.79;44.39
36254;BME280;22291;52.250;21.228;2023-03-23T14:52:35;99341.83;;;17.69;44.80
36254;BME280;22291;52.250;21.228;2023-03-23T14:55:14;99347.07;;;17.61;45.16
36254;BME280;22291;52.250;21.228;2023-03-23T14:57:47;99349.73;;;17.53;45.41
36254;BME280;22291;52.250;21.228;2023-03-23T15:00:24;99353.41;;;17.48;45.65
36254;BME280;22291;52.250;21.228;2023-03-23T15:02:55;99351.98;;;17.41;45.80
36254;BME280;22291;52.250;21.228;2023-03-23T15:08:04;99356.94;;;17.28;46.11
36254;BME280;22291;52.250;21.228;2023-03-23T15:10:32;99359.02;;;17.21;46.39